createdAt,value
2017-10-17T00:00:53.525Z,15.60
2017-10-17T00:03:20.985Z,16.37
2017-10-17T00:05:48.442Z,16.80
2017-10-17T00:08:15.911Z,14.20
2017-10-17T00:10:44.133Z,14.30
2017-10-17T00:13:11.597Z,13.20
2017-10-17T00:15:39.057Z,14.20
2017-10-17T00:18:06.631Z,13.37
2017-10-17T00:20:34.086Z,14.33
2017-10-17T00:23:02.323Z,15.80
2017-10-17T00:25:29.770Z,15.43
2017-10-17T00:27:57.240Z,14.50
2017-10-17T00:30:40.386Z,16.80
2017-10-17T00:33:10.518Z,16.53
2017-10-17T00:35:47.906Z,18.47
2017-10-17T00:38:16.868Z,17.77
2017-10-17T00:40:44.326Z,18.67
2017-10-17T00:43:12.627Z,20.00
2017-10-17T00:45:40.194Z,19.27
2017-10-17T00:48:08.418Z,20.77
2017-10-17T00:50:47.482Z,19.30
2017-10-17T00:53:16.358Z,21.77
2017-10-17T00:55:43.822Z,18.80
2017-10-17T00:58:11.291Z,20.80
2017-10-17T01:00:38.754Z,23.80
2017-10-17T01:03:06.214Z,22.93
2017-10-17T01:05:33.670Z,19.50
2017-10-17T01:08:01.122Z,20.00
2017-10-17T01:10:28.581Z,18.27
2017-10-17T01:12:56.041Z,18.23
2017-10-17T01:15:23.594Z,18.30
2017-10-17T01:17:51.154Z,19.20
2017-10-17T01:20:23.325Z,17.47
2017-10-17T01:22:50.878Z,17.87
2017-10-17T01:25:18.348Z,17.93
2017-10-17T01:27:45.901Z,16.13
2017-10-17T01:30:14.186Z,17.43
2017-10-17T01:32:41.639Z,18.53
2017-10-17T01:35:09.197Z,17.92
2017-10-17T01:37:36.749Z,17.12
2017-10-17T01:45:33.242Z,15.52
2017-10-17T01:48:07.262Z,15.90
2017-10-17T01:50:46.105Z,17.50
2017-10-17T01:53:14.363Z,18.40
2017-10-17T01:55:42.591Z,18.62
2017-10-17T01:58:25.729Z,18.33
2017-10-17T02:00:54.014Z,17.80
2017-10-17T02:03:21.465Z,21.40
2017-10-17T02:05:48.939Z,20.05
2017-10-17T02:08:17.158Z,20.70
2017-10-17T02:11:00.527Z,22.35
2017-10-17T02:13:28.086Z,22.33
2017-10-17T02:15:55.639Z,22.20
2017-10-17T02:18:32.993Z,23.30
2017-10-17T02:21:15.947Z,23.00
2017-10-17T02:23:43.410Z,22.10
2017-10-17T02:26:23.378Z,21.90
2017-10-17T02:29:07.417Z,21.00
2017-10-17T02:31:35.661Z,18.03
2017-10-17T02:34:04.038Z,20.20
2017-10-17T02:36:31.505Z,19.65
2017-10-17T02:38:59.064Z,19.17
2017-10-17T02:41:26.622Z,19.10
2017-10-17T02:43:55.873Z,19.07
2017-10-17T02:46:23.342Z,19.57
2017-10-17T02:48:57.498Z,19.03
2017-10-17T02:51:25.058Z,17.83
2017-10-17T02:53:52.607Z,18.73
2017-10-17T02:56:20.171Z,18.67
2017-10-17T02:58:47.619Z,19.40
2017-10-17T03:01:33.385Z,18.80
2017-10-17T03:04:00.838Z,17.10
2017-10-17T03:06:28.297Z,19.00
2017-10-17T03:08:55.754Z,17.43
2017-10-17T03:11:23.209Z,16.60
2017-10-17T03:13:52.454Z,18.80
2017-10-17T03:16:19.989Z,17.93
2017-10-17T03:18:48.886Z,17.90
2017-10-17T03:21:17.053Z,17.33
2017-10-17T03:23:47.353Z,15.80
2017-10-17T03:26:14.811Z,16.67
2017-10-17T03:28:43.913Z,18.10
2017-10-17T03:31:13.170Z,15.30
2017-10-17T03:33:44.066Z,17.17
2017-10-17T03:36:16.322Z,15.77
2017-10-17T03:38:53.702Z,18.40
2017-10-17T03:41:26.609Z,17.53
2017-10-17T03:43:54.170Z,19.73
2017-10-17T03:46:24.402Z,18.23
2017-10-17T03:48:51.949Z,19.70
2017-10-17T03:51:20.098Z,19.15
2017-10-17T03:53:48.342Z,20.02
2017-10-17T03:56:22.308Z,21.60
2017-10-17T03:58:49.769Z,21.52
2017-10-17T04:01:20.029Z,19.95
2017-10-17T04:06:44.702Z,21.08
2017-10-17T04:09:12.179Z,20.42
2017-10-17T04:11:40.403Z,19.08
2017-10-17T04:14:12.486Z,19.00
2017-10-17T04:16:45.954Z,20.73
2017-10-17T04:19:30.253Z,17.70
2017-10-17T04:22:11.289Z,19.90
2017-10-17T04:27:46.888Z,17.55
2017-10-17T04:30:19.437Z,18.65
2017-10-17T04:32:50.372Z,17.55
2017-10-17T04:35:21.707Z,18.02
2017-10-17T04:37:49.162Z,17.00
2017-10-17T04:40:24.370Z,17.60
2017-10-17T04:43:04.600Z,18.77
2017-10-17T04:45:49.501Z,17.58
2017-10-17T04:48:23.088Z,18.80
2017-10-17T04:50:55.941Z,19.23
2017-10-17T04:53:43.282Z,17.50
2017-10-17T04:56:23.268Z,16.87
2017-10-17T04:59:02.732Z,20.12
2017-10-17T05:01:30.190Z,18.40
2017-10-17T05:04:03.406Z,20.27
2017-10-17T05:06:30.875Z,18.05
2017-10-17T05:09:02.922Z,20.60
2017-10-17T05:11:30.495Z,20.27
2017-10-17T05:16:58.269Z,16.90
2017-10-17T05:19:36.480Z,20.98
2017-10-17T05:22:08.583Z,18.92
2017-10-17T05:24:51.324Z,20.10
2017-10-17T05:27:39.591Z,19.45
2017-10-17T05:30:14.743Z,17.70
2017-10-17T05:32:42.305Z,17.50
2017-10-17T05:35:24.710Z,18.80
2017-10-17T05:37:52.175Z,19.45
2017-10-17T05:40:19.638Z,18.92
2017-10-17T05:42:47.107Z,17.95
2017-10-17T05:45:18.164Z,18.00
2017-10-17T05:47:47.181Z,18.30
2017-10-17T05:50:15.490Z,16.87
2017-10-17T05:52:44.730Z,18.00
2017-10-17T05:55:12.193Z,17.58
2017-10-17T05:57:39.649Z,19.85
2017-10-17T06:00:07.110Z,18.90
2017-10-17T06:02:34.614Z,19.12
2017-10-17T06:05:02.082Z,17.92
2017-10-17T06:07:29.537Z,18.60
2017-10-17T06:09:57.001Z,18.87
2017-10-17T06:12:24.461Z,20.27
2017-10-17T06:14:52.002Z,18.05
2017-10-17T06:17:19.450Z,19.15
2017-10-17T06:19:47.017Z,18.30
2017-10-17T06:22:14.486Z,22.73
2017-10-17T06:24:41.948Z,20.80
2017-10-17T06:27:09.419Z,19.48
2017-10-17T06:29:37.640Z,18.92
2017-10-17T06:32:05.127Z,17.50
2017-10-17T06:34:32.691Z,18.58
2017-10-17T06:37:00.149Z,19.10
2017-10-17T06:39:27.607Z,20.83
2017-10-17T06:41:55.153Z,17.92
2017-10-17T06:44:22.602Z,16.75
2017-10-17T06:46:50.070Z,17.50
2017-10-17T06:49:17.629Z,16.00
2017-10-17T06:51:45.189Z,16.73
2017-10-17T06:54:12.738Z,20.73
2017-10-17T06:56:40.307Z,19.40
2017-10-17T06:59:07.764Z,17.30
2017-10-17T07:01:35.323Z,16.80
2017-10-17T07:04:02.865Z,14.50
2017-10-17T07:06:30.326Z,14.70
2017-10-17T07:08:57.797Z,13.15
2017-10-17T07:11:25.438Z,13.68
2017-10-17T07:13:52.906Z,12.23
2017-10-17T07:16:20.357Z,12.32
2017-10-17T07:18:47.825Z,10.53
2017-10-17T07:21:15.285Z,10.48
2017-10-17T07:23:42.773Z,11.00
2017-10-17T07:26:11.006Z,12.87
2017-10-17T07:28:38.480Z,11.10
2017-10-17T07:31:06.708Z,9.33
2017-10-17T07:33:34.170Z,10.93
2017-10-17T07:36:01.643Z,9.47
2017-10-17T07:38:29.100Z,11.77
2017-10-17T07:40:56.566Z,10.43
2017-10-17T07:43:24.025Z,10.73
2017-10-17T07:45:51.477Z,10.43
2017-10-17T07:48:18.947Z,10.53
2017-10-17T07:50:46.403Z,10.83
2017-10-17T07:53:13.902Z,12.57
2017-10-17T07:55:41.374Z,14.10
2017-10-17T07:58:08.817Z,13.73
2017-10-17T08:00:36.296Z,14.50
2017-10-17T08:03:03.755Z,15.70
2017-10-17T08:05:31.231Z,17.37
2017-10-17T08:07:58.791Z,17.77
2017-10-17T08:10:26.350Z,18.77
2017-10-17T08:12:53.810Z,17.73
2017-10-17T08:15:21.290Z,17.50
2017-10-17T08:17:48.817Z,18.17
2017-10-17T08:20:16.325Z,17.67
2017-10-17T08:22:44.542Z,16.93
2017-10-17T08:25:12.013Z,17.87
2017-10-17T08:27:39.569Z,16.10
2017-10-17T08:30:07.044Z,17.80
2017-10-17T08:32:34.497Z,18.20
2017-10-17T08:35:01.968Z,17.27
2017-10-17T08:37:30.200Z,17.50
2017-10-17T08:39:57.678Z,17.23
2017-10-17T08:42:25.137Z,17.90
2017-10-17T08:44:52.691Z,16.60
2017-10-17T08:47:20.167Z,14.60
2017-10-17T08:49:47.635Z,15.67
2017-10-17T08:52:15.091Z,16.50
2017-10-17T08:54:43.639Z,15.77
2017-10-17T08:57:11.105Z,14.77
2017-10-17T08:59:38.562Z,13.13
2017-10-17T09:02:06.029Z,13.30
2017-10-17T09:04:33.498Z,12.33
2017-10-17T09:07:01.029Z,13.50
2017-10-17T09:09:28.504Z,13.10
2017-10-17T09:11:55.973Z,14.20
2017-10-17T09:14:24.202Z,14.10
2017-10-17T09:16:51.742Z,14.03
2017-10-17T09:19:19.202Z,14.73
2017-10-17T09:21:46.667Z,15.30
2017-10-17T09:24:14.146Z,14.63
2017-10-17T09:26:41.618Z,13.90
2017-10-17T09:29:09.077Z,12.93
2017-10-17T09:31:36.534Z,12.90
2017-10-17T09:34:04.078Z,10.97
2017-10-17T09:36:31.557Z,11.90
2017-10-17T09:38:59.816Z,11.87
2017-10-17T09:41:27.269Z,11.90
2017-10-17T09:43:54.831Z,11.77
2017-10-17T09:46:22.290Z,11.33
2017-10-17T09:48:49.750Z,11.97
2017-10-17T09:51:17.299Z,11.43
2017-10-17T09:53:44.771Z,12.13
2017-10-17T09:56:12.226Z,12.50
2017-10-17T09:58:39.697Z,12.53
2017-10-17T10:01:07.914Z,12.67
2017-10-17T10:03:35.372Z,13.83
2017-10-17T10:06:02.823Z,13.47
2017-10-17T10:08:30.299Z,13.87
2017-10-17T10:10:57.760Z,14.67
2017-10-17T10:13:25.321Z,14.07
2017-10-17T10:15:52.881Z,14.20
2017-10-17T10:18:20.352Z,14.43
2017-10-17T10:20:47.821Z,13.23
2017-10-17T10:23:16.050Z,11.17
2017-10-17T10:25:43.524Z,12.30
2017-10-17T10:28:10.991Z,12.03
2017-10-17T10:30:38.538Z,14.70
2017-10-17T10:33:06.173Z,14.80
2017-10-17T10:35:33.637Z,14.03
2017-10-17T10:38:01.094Z,14.47
2017-10-17T10:40:28.560Z,14.30
2017-10-17T10:42:56.033Z,11.23
2017-10-17T10:45:23.593Z,11.73
2017-10-17T10:47:51.050Z,12.40
2017-10-17T10:50:18.505Z,11.53
2017-10-17T10:52:47.472Z,15.73
2017-10-17T10:55:14.946Z,13.07
2017-10-17T10:57:42.510Z,15.10
2017-10-17T11:00:10.065Z,12.80
2017-10-17T11:02:37.629Z,11.80
2017-10-17T11:05:05.194Z,10.13
2017-10-17T11:07:32.653Z,11.40
2017-10-17T11:10:00.121Z,8.70
2017-10-17T11:12:27.570Z,9.23
2017-10-17T11:14:55.042Z,10.03
2017-10-17T11:17:23.260Z,8.30
2017-10-17T11:19:50.721Z,9.60
2017-10-17T11:22:18.160Z,8.33
2017-10-17T11:24:45.617Z,7.30
2017-10-17T11:27:13.126Z,8.20
2017-10-17T11:29:40.591Z,6.60
2017-10-17T11:32:08.050Z,9.30
2017-10-17T11:34:35.601Z,7.97
2017-10-17T11:37:03.058Z,7.07
2017-10-17T11:39:30.516Z,9.23
2017-10-17T11:44:53.786Z,8.30
2017-10-17T11:47:21.262Z,8.77
2017-10-17T11:49:49.473Z,7.17
2017-10-17T11:52:16.924Z,7.00
2017-10-17T11:54:44.443Z,7.00
2017-10-17T11:57:11.900Z,6.23
2017-10-17T11:59:39.350Z,7.50
2017-10-17T12:02:06.997Z,7.33
2017-10-17T12:04:34.562Z,6.47
2017-10-17T12:07:02.018Z,6.73
2017-10-17T12:09:29.468Z,6.60
2017-10-17T12:11:56.927Z,7.27
2017-10-17T12:14:24.394Z,6.70
2017-10-17T12:16:51.855Z,6.70
2017-10-17T12:19:19.402Z,7.23
2017-10-17T12:21:46.884Z,6.43
2017-10-17T12:24:14.343Z,6.67
2017-10-17T12:26:41.809Z,6.63
2017-10-17T12:29:10.034Z,8.10
2017-10-17T12:31:37.489Z,7.07
2017-10-17T12:34:04.949Z,6.90
2017-10-17T12:36:32.409Z,6.47
2017-10-17T12:38:59.863Z,6.10
2017-10-17T12:41:27.319Z,5.63
2017-10-17T12:43:54.771Z,5.67
2017-10-17T12:46:22.226Z,5.67
2017-10-17T12:48:49.671Z,5.80
2017-10-17T12:51:17.157Z,5.67
2017-10-17T12:53:44.710Z,6.80
2017-10-17T12:56:12.169Z,6.07
2017-10-17T12:58:39.609Z,5.53
2017-10-17T13:01:07.090Z,5.77
2017-10-17T13:03:34.537Z,6.13
2017-10-17T13:06:02.013Z,5.90
2017-10-17T13:08:29.461Z,5.33
2017-10-17T13:10:57.743Z,6.83
2017-10-17T13:13:25.290Z,6.23
2017-10-17T13:15:52.739Z,5.37
2017-10-17T13:18:20.194Z,6.30
2017-10-17T13:20:47.641Z,5.17
2017-10-17T13:23:15.101Z,6.17
2017-10-17T13:25:42.549Z,5.63
2017-10-17T13:28:10.040Z,4.80
2017-10-17T13:30:37.490Z,4.97
2017-10-17T13:33:04.938Z,5.13
2017-10-17T13:35:32.498Z,5.33
2017-10-17T13:37:59.953Z,5.70
2017-10-17T13:40:27.405Z,5.53
2017-10-17T13:42:54.862Z,5.63
2017-10-17T13:45:22.304Z,5.33
2017-10-17T13:47:49.755Z,5.43
2017-10-17T13:50:17.197Z,5.10
2017-10-17T13:52:44.650Z,5.10
2017-10-17T13:55:12.111Z,5.83
2017-10-17T13:57:39.608Z,4.90
2017-10-17T14:00:07.054Z,5.40
2017-10-17T14:02:34.527Z,5.70
2017-10-17T14:05:01.974Z,6.17
2017-10-17T14:07:29.439Z,5.40
2017-10-17T14:09:56.882Z,6.40
2017-10-17T14:12:24.339Z,4.80
2017-10-17T14:14:51.800Z,4.60
2017-10-17T14:17:19.243Z,5.70
2017-10-17T14:19:46.713Z,4.40
2017-10-17T14:22:14.163Z,6.10
2017-10-17T14:24:41.715Z,5.33
2017-10-17T14:27:09.189Z,6.00
2017-10-17T14:29:36.651Z,5.10
2017-10-17T14:32:04.105Z,4.43
2017-10-17T14:34:31.561Z,4.70
2017-10-17T14:36:59.119Z,5.67
2017-10-17T14:39:26.575Z,5.07
2017-10-17T14:41:54.017Z,5.30
2017-10-17T14:44:21.473Z,5.17
2017-10-17T14:46:48.933Z,5.70
2017-10-17T14:49:16.404Z,5.33
2017-10-17T14:51:43.859Z,5.00
2017-10-17T14:54:11.377Z,4.77
2017-10-17T14:56:38.823Z,5.80
2017-10-17T14:59:06.261Z,4.90
2017-10-17T15:01:34.481Z,5.17
2017-10-17T15:04:01.953Z,5.37
2017-10-17T15:06:29.423Z,5.50
2017-10-17T15:08:56.867Z,6.50
2017-10-17T15:11:24.428Z,5.20
2017-10-17T15:13:51.883Z,5.53
2017-10-17T15:16:19.329Z,5.90
2017-10-17T15:18:46.779Z,6.27
2017-10-17T15:21:14.238Z,6.80
2017-10-17T15:23:41.691Z,5.90
2017-10-17T15:26:09.149Z,6.47
2017-10-17T15:28:36.611Z,7.63
2017-10-17T15:31:04.085Z,5.83
2017-10-17T15:33:32.294Z,5.83
2017-10-17T15:36:00.640Z,6.67
2017-10-17T15:38:28.082Z,6.33
2017-10-17T15:40:55.639Z,6.17
2017-10-17T15:43:23.081Z,5.53
2017-10-17T15:45:50.534Z,6.43
2017-10-17T15:48:18.013Z,5.40
2017-10-17T15:50:45.492Z,5.83
2017-10-17T15:53:13.751Z,7.10
2017-10-17T15:55:41.307Z,6.17
2017-10-17T15:58:08.778Z,7.70
2017-10-17T16:00:36.992Z,6.83
2017-10-17T16:03:04.497Z,7.40
2017-10-17T16:05:32.726Z,6.47
2017-10-17T16:08:00.187Z,7.60
2017-10-17T16:10:27.679Z,7.20
2017-10-17T16:12:55.233Z,7.33
2017-10-17T16:15:22.694Z,7.77
2017-10-17T16:17:50.171Z,8.07
2017-10-17T16:20:19.125Z,8.50
2017-10-17T16:22:46.607Z,7.47
2017-10-17T16:25:14.063Z,7.13
2017-10-17T16:27:41.533Z,6.23
2017-10-17T16:30:08.977Z,7.47
2017-10-17T16:32:36.451Z,6.83
2017-10-17T16:35:04.666Z,6.83
2017-10-17T16:37:32.129Z,7.20
2017-10-17T16:39:59.587Z,7.20
2017-10-17T16:42:27.074Z,7.50
2017-10-17T16:44:54.526Z,5.80
2017-10-17T16:47:21.985Z,7.53
2017-10-17T16:49:49.477Z,7.90
2017-10-17T16:52:17.705Z,8.17
2017-10-17T16:54:45.164Z,7.77
2017-10-17T16:57:12.640Z,8.13
2017-10-17T16:59:40.097Z,7.80
2017-10-17T17:02:07.559Z,6.20
2017-10-17T17:04:35.018Z,9.40
2017-10-17T17:07:02.468Z,7.33
2017-10-17T17:09:29.930Z,9.77
2017-10-17T17:11:57.478Z,9.83
2017-10-17T17:14:25.035Z,9.73
2017-10-17T17:16:52.490Z,8.90
2017-10-17T17:19:19.950Z,8.70
2017-10-17T17:21:47.505Z,8.63
2017-10-17T17:24:14.957Z,7.90
2017-10-17T17:26:42.415Z,9.33
2017-10-17T17:29:09.871Z,7.00
2017-10-17T17:31:37.321Z,8.90
2017-10-17T17:34:04.784Z,8.60
2017-10-17T17:36:32.350Z,8.70
2017-10-17T17:38:59.898Z,9.00
2017-10-17T17:41:27.359Z,12.80
2017-10-17T17:43:54.928Z,8.70
2017-10-17T17:46:22.373Z,9.77
2017-10-17T17:48:49.851Z,8.70
2017-10-17T17:51:17.306Z,12.17
2017-10-17T17:53:44.767Z,13.97
2017-10-17T17:56:12.214Z,14.23
2017-10-17T17:58:39.678Z,14.80
2017-10-17T18:01:07.126Z,15.03
2017-10-17T18:03:34.593Z,14.40
2017-10-17T18:06:02.048Z,14.17
2017-10-17T18:08:29.505Z,11.87
2017-10-17T18:10:56.967Z,14.20
2017-10-17T18:13:25.201Z,13.27
2017-10-17T18:15:52.666Z,13.50
2017-10-17T18:18:20.126Z,14.10
2017-10-17T18:20:47.592Z,15.10
2017-10-17T18:23:15.042Z,14.47
2017-10-17T18:25:42.510Z,14.20
2017-10-17T18:28:09.978Z,16.37
2017-10-17T18:30:37.515Z,14.80
2017-10-17T18:33:04.972Z,13.37
2017-10-17T18:35:32.446Z,15.07
2017-10-17T18:37:59.904Z,14.80
2017-10-17T18:40:27.453Z,15.97
2017-10-17T18:42:55.010Z,14.87
2017-10-17T18:45:22.481Z,15.13
2017-10-17T18:47:49.931Z,12.70
2017-10-17T18:50:17.476Z,13.30
2017-10-17T18:52:44.931Z,13.70
2017-10-17T18:55:12.401Z,13.30
2017-10-17T18:57:39.859Z,14.10
2017-10-17T19:00:07.329Z,15.13
2017-10-17T19:02:35.550Z,14.70
2017-10-17T19:05:03.015Z,14.10
2017-10-17T19:07:30.498Z,14.27
2017-10-17T19:09:58.737Z,13.60
2017-10-17T19:12:26.202Z,15.47
2017-10-17T19:14:53.673Z,13.60
2017-10-17T19:17:21.129Z,14.80
2017-10-17T19:19:48.699Z,13.50
2017-10-17T19:22:17.661Z,14.87
2017-10-17T19:24:45.130Z,14.73
2017-10-17T19:27:12.586Z,12.70
2017-10-17T19:29:40.069Z,14.90
2017-10-17T19:32:08.291Z,15.67
2017-10-17T19:34:35.745Z,15.33
2017-10-17T19:37:03.214Z,14.77
2017-10-17T19:39:30.670Z,16.53
2017-10-17T19:41:58.142Z,17.80
2017-10-17T19:44:25.602Z,15.50
2017-10-17T19:46:53.062Z,14.20
2017-10-17T19:49:20.629Z,16.87
2017-10-17T19:51:48.098Z,14.63
2017-10-17T19:54:15.565Z,16.03
2017-10-17T19:56:43.097Z,14.17
2017-10-17T19:59:10.561Z,15.20
2017-10-17T20:01:38.021Z,14.40
2017-10-17T20:04:05.477Z,13.07
2017-10-17T20:06:33.710Z,15.53
2017-10-17T20:09:01.174Z,14.33
2017-10-17T20:11:28.638Z,14.03
2017-10-17T20:13:56.102Z,15.20
2017-10-17T20:16:23.561Z,15.73
2017-10-17T20:18:51.017Z,13.67
2017-10-17T20:21:18.483Z,14.93
2017-10-17T20:23:45.947Z,14.37
2017-10-17T20:26:13.410Z,17.07
2017-10-17T20:28:40.874Z,15.53
2017-10-17T20:31:08.324Z,15.87
2017-10-17T20:33:35.792Z,17.07
2017-10-17T20:36:03.241Z,15.80
2017-10-17T20:38:30.822Z,17.63
2017-10-17T20:40:58.251Z,17.60
2017-10-17T20:43:25.709Z,16.20
2017-10-17T20:45:53.161Z,15.77
2017-10-17T20:48:20.718Z,14.43
2017-10-17T20:50:48.169Z,15.90
2017-10-17T20:53:15.625Z,16.50
2017-10-17T20:55:43.181Z,15.40
2017-10-17T20:58:10.650Z,15.33
2017-10-17T21:00:38.110Z,17.10
2017-10-17T21:03:05.575Z,17.20
2017-10-17T21:05:33.123Z,16.83
2017-10-17T21:08:00.678Z,18.20
2017-10-17T21:10:28.151Z,18.30
2017-10-17T21:12:55.604Z,16.70
2017-10-17T21:15:23.071Z,15.70
2017-10-17T21:17:51.305Z,17.23
2017-10-17T21:20:18.769Z,18.10
2017-10-17T21:22:46.334Z,15.10
2017-10-17T21:25:13.798Z,17.23
2017-10-17T21:27:41.261Z,17.93
2017-10-17T21:30:08.722Z,13.00
2017-10-17T21:32:36.202Z,16.23
2017-10-17T21:35:04.435Z,16.50
2017-10-17T21:37:31.887Z,16.30
2017-10-17T21:39:59.349Z,15.37
2017-10-17T21:42:26.907Z,18.20
2017-10-17T21:44:54.362Z,17.73
2017-10-17T21:47:21.813Z,17.17
2017-10-17T21:49:49.383Z,18.00
2017-10-17T21:52:16.846Z,17.50
2017-10-17T21:54:44.313Z,15.90
2017-10-17T21:57:12.552Z,17.65
2017-10-17T22:02:36.681Z,19.20
2017-10-17T22:05:04.145Z,18.60
2017-10-17T22:07:32.371Z,17.20
2017-10-17T22:09:59.825Z,18.03
2017-10-17T22:12:27.282Z,18.20
2017-10-17T22:14:54.741Z,19.07
2017-10-17T22:17:22.194Z,15.57
2017-10-17T22:19:49.678Z,15.70
2017-10-17T22:22:17.139Z,15.80
2017-10-17T22:24:44.699Z,15.83
2017-10-17T22:27:12.162Z,18.23
2017-10-17T22:29:39.723Z,20.63
2017-10-17T22:32:07.178Z,17.80
2017-10-17T22:34:34.651Z,17.57
2017-10-17T22:37:02.898Z,16.70
2017-10-17T22:39:30.465Z,18.57
2017-10-17T22:41:57.923Z,17.70
2017-10-17T22:44:25.472Z,17.37
2017-10-17T22:46:52.926Z,17.50
2017-10-17T22:49:20.382Z,18.33
2017-10-17T22:51:47.836Z,16.67
2017-10-17T22:54:15.293Z,17.20
2017-10-17T22:56:42.760Z,19.27
2017-10-17T22:59:10.214Z,16.17
2017-10-17T23:01:37.683Z,17.17
2017-10-17T23:04:05.130Z,15.23
2017-10-17T23:06:32.590Z,15.60
2017-10-17T23:09:00.053Z,18.40
2017-10-17T23:11:27.505Z,16.67
2017-10-17T23:13:55.057Z,17.70
2017-10-17T23:16:22.623Z,18.70
2017-10-17T23:19:02.062Z,18.30
2017-10-17T23:21:29.536Z,18.00
2017-10-17T23:23:57.769Z,17.80
2017-10-17T23:26:25.226Z,17.43
2017-10-17T23:28:52.681Z,17.40
2017-10-17T23:31:20.147Z,16.63
2017-10-17T23:33:47.603Z,16.97
2017-10-17T23:36:15.058Z,17.58
2017-10-17T23:38:42.622Z,20.45
2017-10-17T23:41:10.085Z,18.50
2017-10-17T23:43:37.546Z,17.77
2017-10-17T23:46:05.014Z,23.40
2017-10-17T23:48:32.475Z,18.90
2017-10-17T23:50:59.936Z,19.37
2017-10-17T23:53:28.157Z,17.40
2017-10-17T23:55:55.634Z,17.93
2017-10-17T23:58:23.086Z,17.47
